sensor_id;sensor_type;location;lat;lon;timestamp;pressure;altitude;pressure_sealevel;temperature;humidity
18765;BME280;9511;54.242;12.448;2023-12-20T04:05:41;100360.09;;;4.29;100.00
18765;BME280;9511;54.242;12.448;2023-12-20T04:08:09;100349.56;;;4.28;100.00
18765;BME280;9511;54.242;12.448;2023-12-20T04:10:36;100366.22;;;4.30;100.00
18765;BME280;9511;54.242;12.448;2023-12-20T04:13:04;100349.88;;;4.35;100.00
18765;BME280;9511;54.242;12.448;2023-12-20T04:15:31;100358.56;;;4.34;100.00
18765;BME280;9511;54.242;12.448;2023-12-20T04:17:59;100357.72;;;4.35;100.00
18765;BME280;9511;54.242;12.448;2023-12-20T04:20:26;100352.69;;;4.40;100.00
18765;BME280;9511;54.242;12.448;2023-12-20T04:22:55;100349.13;;;4.38;100.00
18765;BME280;9511;54.242;12.448;2023-12-20T04:25:22;100353.59;;;4.40;100.00
18765;BME280;9511;54.242;12.448;2023-12-20T04:27:49;100346.63;;;4.41;100.00
18765;BME280;9511;54.242;12.448;2023-12-20T04:30:17;100341.34;;;4.39;100.00
18765;BME280;9511;54.242;12.448;2023-12-20T04:32:44;100334.44;;;4.41;100.00
18765;BME280;9511;54.242;12.448;2023-12-20T04:35:12;100323.25;;;4.45;100.00
18765;BME280;9511;54.242;12.448;2023-12-20T04:37:39;100318.09;;;4.47;100.00
18765;BME280;9511;54.242;12.448;2023-12-20T04:40:08;100321.69;;;4.49;100.00
18765;BME280;9511;54.242;12.448;2023-12-20T04:42:36;100318.47;;;4.56;100.00
18765;BME280;9511;54.242;12.448;2023-12-20T04:45:04;100319.50;;;4.60;100.00
18765;BME280;9511;54.242;12.448;2023-12-20T04:47:32;100323.97;;;4.62;100.00
18765;BME280;9511;54.242;12.448;2023-12-20T04:49:59;100321.34;;;4.62;100.00
18765;BME280;9511;54.242;12.448;2023-12-20T04:52:26;100312.66;;;4.63;100.00
18765;BME280;9511;54.242;12.448;2023-12-20T04:54:54;100311.81;;;4.64;100.00
18765;BME280;9511;54.242;12.448;2023-12-20T04:57:22;100301.44;;;4.66;100.00
18765;BME280;9511;54.242;12.448;2023-12-20T04:59:50;100304.06;;;4.66;100.00
18765;BME280;9511;54.242;12.448;2023-12-20T05:02:17;100298.88;;;4.67;100.00
18765;BME280;9511;54.242;12.448;2023-12-20T05:04:44;100295.47;;;4.70;100.00
18765;BME280;9511;54.242;12.448;2023-12-20T05:07:12;100293.69;;;4.69;100.00
18765;BME280;9511;54.242;12.448;2023-12-20T05:09:39;100292.09;;;4.72;100.00
18765;BME280;9511;54.242;12.448;2023-12-20T05:12:07;100303.53;;;4.74;100.00
18765;BME280;9511;54.242;12.448;2023-12-20T05:14:35;100292.16;;;4.74;100.00
18765;BME280;9511;54.242;12.448;2023-12-20T05:17:03;100280.81;;;4.75;100.00
18765;BME280;9511;54.242;12.448;2023-12-20T05:19:30;100283.59;;;4.78;100.00
18765;BME280;9511;54.242;12.448;2023-12-20T05:22:01;100271.31;;;4.77;100.00
18765;BME280;9511;54.242;12.448;2023-12-20T05:24:28;100282.69;;;4.77;100.00
18765;BME280;9511;54.242;12.448;2023-12-20T05:26:56;100268.72;;;4.77;100.00
18765;BME280;9511;54.242;12.448;2023-12-20T05:29:28;100265.25;;;4.78;100.00
18765;BME280;9511;54.242;12.448;2023-12-20T05:31:58;100264.31;;;4.76;100.00
18765;BME280;9511;54.242;12.448;2023-12-20T05:34:26;100257.34;;;4.76;100.00
18765;BME280;9511;54.242;12.448;2023-12-20T05:36:53;100254.72;;;4.76;100.00
18765;BME280;9511;54.242;12.448;2023-12-20T05:39:20;100256.53;;;4.79;100.00
18765;BME280;9511;54.242;12.448;2023-12-20T05:41:47;100250.47;;;4.80;100.00
18765;BME280;9511;54.242;12.448;2023-12-20T05:44:15;100256.69;;;4.82;100.00
18765;BME280;9511;54.242;12.448;2023-12-20T05:46:42;100258.53;;;4.85;100.00
18765;BME280;9511;54.242;12.448;2023-12-20T05:49:11;100250.78;;;4.88;100.00
18765;BME280;9511;54.242;12.448;2023-12-20T05:51:39;100247.38;;;4.90;100.00
18765;BME280;9511;54.242;12.448;2023-12-20T05:54:08;100243.69;;;4.85;100.00
18765;BME280;9511;54.242;12.448;2023-12-20T05:56:36;100245.38;;;4.83;100.00
18765;BME280;9511;54.242;12.448;2023-12-20T05:59:03;100242.00;;;4.87;100.00
18765;BME280;9511;54.242;12.448;2023-12-20T06:01:31;100244.81;;;4.92;100.00
18765;BME280;9511;54.242;12.448;2023-12-20T06:03:58;100243.09;;;4.92;100.00
18765;BME280;9511;54.242;12.448;2023-12-20T06:06:27;100250.00;;;4.90;100.00
18765;BME280;9511;54.242;12.448;2023-12-20T06:08:54;100234.22;;;4.89;100.00
18765;BME280;9511;54.242;12.448;2023-12-20T06:11:22;100239.34;;;4.86;100.00
18765;BME280;9511;54.242;12.448;2023-12-20T06:13:49;100244.34;;;4.79;100.00
18765;BME280;9511;54.242;12.448;2023-12-20T06:16:18;100225.72;;;4.72;100.00
18765;BME280;9511;54.242;12.448;2023-12-20T06:18:45;100232.59;;;4.70;100.00
18765;BME280;9511;54.242;12.448;2023-12-20T06:21:13;100223.53;;;4.62;100.00
18765;BME280;9511;54.242;12.448;2023-12-20T06:23:41;100210.16;;;4.54;100.00
18765;BME280;9511;54.242;12.448;2023-12-20T06:26:09;100215.31;;;4.52;100.00
18765;BME280;9511;54.242;12.448;2023-12-20T06:28:36;100208.19;;;4.48;100.00
18765;BME280;9511;54.242;12.448;2023-12-20T06:31:04;100201.06;;;4.46;100.00
18765;BME280;9511;54.242;12.448;2023-12-20T06:33:31;100195.19;;;4.51;100.00
18765;BME280;9511;54.242;12.448;2023-12-20T06:35:58;100199.25;;;4.43;100.00
18765;BME280;9511;54.242;12.448;2023-12-20T06:38:26;100194.09;;;4.46;100.00
18765;BME280;9511;54.242;12.448;2023-12-20T06:40:55;100189.72;;;4.45;100.00
18765;BME280;9511;54.242;12.448;2023-12-20T06:43:23;100189.72;;;4.45;100.00
18765;BME280;9511;54.242;12.448;2023-12-20T06:45:50;100192.38;;;4.47;100.00
18765;BME280;9511;54.242;12.448;2023-12-20T06:48:18;100181.16;;;4.49;100.00
18765;BME280;9511;54.242;12.448;2023-12-20T06:50:45;100179.41;;;4.50;100.00
18765;BME280;9511;54.242;12.448;2023-12-20T06:53:12;100171.03;;;4.59;100.00
18765;BME280;9511;54.242;12.448;2023-12-20T06:55:40;100154.72;;;4.66;100.00
18765;BME280;9511;54.242;12.448;2023-12-20T06:58:08;100159.84;;;4.63;100.00
18765;BME280;9511;54.242;12.448;2023-12-20T07:00:36;100167.69;;;4.63;100.00
18765;BME280;9511;54.242;12.448;2023-12-20T07:03:04;100171.44;;;4.69;100.00
18765;BME280;9511;54.242;12.448;2023-12-20T07:05:32;100173.34;;;4.73;100.00
18765;BME280;9511;54.242;12.448;2023-12-20T07:07:59;100176.22;;;4.79;100.00
18765;BME280;9511;54.242;12.448;2023-12-20T07:10:26;100171.88;;;4.80;100.00
18765;BME280;9511;54.242;12.448;2023-12-20T07:12:55;100182.94;;;4.95;100.00
18765;BME280;9511;54.242;12.448;2023-12-20T07:15:23;100189.69;;;4.89;100.00
18765;BME280;9511;54.242;12.448;2023-12-20T07:17:51;100183.88;;;4.97;100.00
18765;BME280;9511;54.242;12.448;2023-12-20T07:20:18;100189.72;;;4.90;100.00
18765;BME280;9511;54.242;12.448;2023-12-20T07:22:45;100179.00;;;4.84;100.00
18765;BME280;9511;54.242;12.448;2023-12-20T07:25:13;100170.31;;;4.85;100.00
18765;BME280;9511;54.242;12.448;2023-12-20T07:27:40;100175.78;;;4.91;100.00
18765;BME280;9511;54.242;12.448;2023-12-20T07:30:08;100173.41;;;4.75;100.00
18765;BME280;9511;54.242;12.448;2023-12-20T07:32:37;100166.16;;;4.68;100.00
18765;BME280;9511;54.242;12.448;2023-12-20T07:35:05;100176.41;;;4.62;100.00
18765;BME280;9511;54.242;12.448;2023-12-20T07:37:32;100171.03;;;4.59;100.00
18765;BME280;9511;54.242;12.448;2023-12-20T07:39:59;100169.09;;;4.53;100.00
18765;BME280;9511;54.242;12.448;2023-12-20T07:42:27;100166.31;;;4.50;100.00
18765;BME280;9511;54.242;12.448;2023-12-20T07:44:54;100163.66;;;4.48;100.00
18765;BME280;9511;54.242;12.448;2023-12-20T07:47:21;100158.19;;;4.42;100.00
18765;BME280;9511;54.242;12.448;2023-12-20T07:49:50;100153.75;;;4.41;100.00
18765;BME280;9511;54.242;12.448;2023-12-20T07:52:18;100156.38;;;4.41;100.00
18765;BME280;9511;54.242;12.448;2023-12-20T07:54:47;100158.94;;;4.40;100.00
18765;BME280;9511;54.242;12.448;2023-12-20T07:57:15;100146.03;;;4.44;100.00
18765;BME280;9511;54.242;12.448;2023-12-20T07:59:42;100152.22;;;4.46;100.00
18765;BME280;9511;54.242;12.448;2023-12-20T08:02:10;100144.25;;;4.43;100.00
18765;BME280;9511;54.242;12.448;2023-12-20T08:04:37;100140.78;;;4.44;100.00
18765;BME280;9511;54.242;12.448;2023-12-20T08:07:06;100141.69;;;4.45;100.00
18765;BME280;9511;54.242;12.448;2023-12-20T08:09:33;100157.59;;;4.49;100.00
18765;BME280;9511;54.242;12.448;2023-12-20T08:12:03;100150.63;;;4.50;100.00
18765;BME280;9511;54.242;12.448;2023-12-20T08:14:30;100154.13;;;4.50;100.00
18765;BME280;9511;54.242;12.448;2023-12-20T08:16:58;100143.66;;;4.50;100.00
18765;BME280;9511;54.242;12.448;2023-12-20T08:19:25;100149.81;;;4.52;100.00
18765;BME280;9511;54.242;12.448;2023-12-20T08:21:52;100142.94;;;4.55;100.00
18765;BME280;9511;54.242;12.448;2023-12-20T08:24:21;100153.28;;;4.51;100.00
18765;BME280;9511;54.242;12.448;2023-12-20T08:26:48;100148.03;;;4.51;100.00
18765;BME280;9511;54.242;12.448;2023-12-20T08:29:15;100149.97;;;4.56;100.00
18765;BME280;9511;54.242;12.448;2023-12-20T08:31:42;100138.47;;;4.52;100.00
18765;BME280;9511;54.242;12.448;2023-12-20T08:34:10;100134.25;;;4.56;100.00
18765;BME280;9511;54.242;12.448;2023-12-20T08:36:39;100132.34;;;4.51;100.00
18765;BME280;9511;54.242;12.448;2023-12-20T08:39:06;100143.84;;;4.55;100.00
18765;BME280;9511;54.242;12.448;2023-12-20T08:41:36;100146.22;;;4.49;100.00
18765;BME280;9511;54.242;12.448;2023-12-20T08:44:04;100132.00;;;4.42;100.00
18765;BME280;9511;54.242;12.448;2023-12-20T08:46:31;100127.56;;;4.41;100.00
18765;BME280;9511;54.242;12.448;2023-12-20T08:48:58;100123.25;;;4.42;100.00
18765;BME280;9511;54.242;12.448;2023-12-20T08:51:26;100118.66;;;4.36;100.00
18765;BME280;9511;54.242;12.448;2023-12-20T08:53:54;100116.84;;;4.35;100.00
18765;BME280;9511;54.242;12.448;2023-12-20T08:56:21;100103.41;;;4.26;100.00
18765;BME280;9511;54.242;12.448;2023-12-20T08:58:50;100106.03;;;4.26;100.00
18765;BME280;9511;54.242;12.448;2023-12-20T09:01:17;100101.41;;;4.19;100.00
18765;BME280;9511;54.242;12.448;2023-12-20T09:03:44;100105.84;;;4.21;100.00
18765;BME280;9511;54.242;12.448;2023-12-20T09:06:11;100103.28;;;4.23;100.00
18765;BME280;9511;54.242;12.448;2023-12-20T09:08:39;100093.59;;;4.20;100.00
18765;BME280;9511;54.242;12.448;2023-12-20T09:11:07;100083.13;;;4.20;100.00
18765;BME280;9511;54.242;12.448;2023-12-20T09:13:34;100074.47;;;4.23;100.00
18765;BME280;9511;54.242;12.448;2023-12-20T09:16:03;100077.00;;;4.20;100.00
18765;BME280;9511;54.242;12.448;2023-12-20T09:18:30;100083.22;;;4.23;100.00
18765;BME280;9511;54.242;12.448;2023-12-20T09:20:57;100085.78;;;4.22;100.00
18765;BME280;9511;54.242;12.448;2023-12-20T09:23:25;100077.09;;;4.23;100.00
18765;BME280;9511;54.242;12.448;2023-12-20T09:25:52;100071.03;;;4.24;100.00
18765;BME280;9511;54.242;12.448;2023-12-20T09:28:20;100058.88;;;4.24;100.00
18765;BME280;9511;54.242;12.448;2023-12-20T09:30:47;100069.38;;;4.26;100.00
18765;BME280;9511;54.242;12.448;2023-12-20T09:33:16;100054.63;;;4.28;100.00
18765;BME280;9511;54.242;12.448;2023-12-20T09:35:43;100058.22;;;4.30;100.00
18765;BME280;9511;54.242;12.448;2023-12-20T09:38:11;100048.63;;;4.31;100.00
18765;BME280;9511;54.242;12.448;2023-12-20T09:40:41;100052.53;;;4.42;100.00
18765;BME280;9511;54.242;12.448;2023-12-20T09:43:10;100037.16;;;4.51;100.00
18765;BME280;9511;54.242;12.448;2023-12-20T09:45:38;100034.81;;;4.59;100.00
18765;BME280;9511;54.242;12.448;2023-12-20T09:48:07;100031.41;;;4.60;100.00
18765;BME280;9511;54.242;12.448;2023-12-20T09:50:36;100037.63;;;4.63;100.00
18765;BME280;9511;54.242;12.448;2023-12-20T09:53:04;100018.53;;;4.66;100.00
18765;BME280;9511;54.242;12.448;2023-12-20T09:55:35;100003.06;;;4.73;100.00
18765;BME280;9511;54.242;12.448;2023-12-20T09:58:03;100012.78;;;4.76;100.00
18765;BME280;9511;54.242;12.448;2023-12-20T10:00:31;100001.38;;;4.75;100.00
18765;BME280;9511;54.242;12.448;2023-12-20T10:03:00;99980.38;;;4.74;100.00
18765;BME280;9511;54.242;12.448;2023-12-20T10:05:28;99974.28;;;4.75;100.00
18765;BME280;9511;54.242;12.448;2023-12-20T10:07:58;99974.28;;;4.75;100.00
18765;BME280;9511;54.242;12.448;2023-12-20T10:10:26;99971.63;;;4.73;100.00
18765;BME280;9511;54.242;12.448;2023-12-20T10:13:04;99966.38;;;4.73;100.00
18765;BME280;9511;54.242;12.448;2023-12-20T10:15:32;99958.50;;;4.72;100.00
18765;BME280;9511;54.242;12.448;2023-12-20T10:18:00;99949.66;;;4.70;100.00
18765;BME280;9511;54.242;12.448;2023-12-20T10:20:27;99960.13;;;4.70;100.00
18765;BME280;9511;54.242;12.448;2023-12-20T10:22:56;99949.56;;;4.67;100.00
18765;BME280;9511;54.242;12.448;2023-12-20T10:25:25;99942.47;;;4.64;100.00
18765;BME280;9511;54.242;12.448;2023-12-20T10:28:10;99956.25;;;4.59;100.00
18765;BME280;9511;54.242;12.448;2023-12-20T10:30:38;99936.97;;;4.57;100.00
18765;BME280;9511;54.242;12.448;2023-12-20T10:33:06;99935.19;;;4.56;100.00
18765;BME280;9511;54.242;12.448;2023-12-20T10:35:34;99928.28;;;4.58;100.00
18765;BME280;9511;54.242;12.448;2023-12-20T10:38:04;99924.59;;;4.52;100.00
18765;BME280;9511;54.242;12.448;2023-12-20T10:40:34;99915.97;;;4.55;100.00
18765;BME280;9511;54.242;12.448;2023-12-20T10:43:04;99925.41;;;4.50;100.00
18765;BME280;9511;54.242;12.448;2023-12-20T10:45:31;99931.44;;;4.47;100.00
18765;BME280;9511;54.242;12.448;2023-12-20T10:47:59;99911.28;;;4.46;100.00
18765;BME280;9511;54.242;12.448;2023-12-20T10:50:27;99921.84;;;4.48;100.00
18765;BME280;9511;54.242;12.448;2023-12-20T10:52:55;99910.47;;;4.47;100.00
18765;BME280;9511;54.242;12.448;2023-12-20T10:55:23;99907.09;;;4.51;100.00
18765;BME280;9511;54.242;12.448;2023-12-20T10:57:52;99908.88;;;4.52;100.00
18765;BME280;9511;54.242;12.448;2023-12-20T11:00:23;99910.56;;;4.50;100.00
18765;BME280;9511;54.242;12.448;2023-12-20T11:02:50;99907.03;;;4.48;100.00
18765;BME280;9511;54.242;12.448;2023-12-20T11:05:28;99909.91;;;4.56;100.00
18765;BME280;9511;54.242;12.448;2023-12-20T11:08:01;99893.50;;;4.62;100.00
18765;BME280;9511;54.242;12.448;2023-12-20T11:10:31;99901.38;;;4.62;100.00
18765;BME280;9511;54.242;12.448;2023-12-20T11:13:08;99904.09;;;4.65;100.00
18765;BME280;9511;54.242;12.448;2023-12-20T11:15:37;99904.31;;;4.71;100.00
18765;BME280;9511;54.242;12.448;2023-12-20T11:18:05;99927.72;;;4.66;100.00
18765;BME280;9511;54.242;12.448;2023-12-20T11:20:36;99913.31;;;4.53;100.00
18765;BME280;9511;54.242;12.448;2023-12-20T11:23:05;99922.81;;;4.51;100.00
18765;BME280;9511;54.242;12.448;2023-12-20T11:25:46;99911.38;;;4.48;100.00
18765;BME280;9511;54.242;12.448;2023-12-20T11:28:15;99911.38;;;4.48;100.00
18765;BME280;9511;54.242;12.448;2023-12-20T11:30:47;99920.31;;;4.55;100.00
18765;BME280;9511;54.242;12.448;2023-12-20T11:33:15;99913.44;;;4.58;100.00
18765;BME280;9511;54.242;12.448;2023-12-20T11:35:43;99906.47;;;4.59;100.00
18765;BME280;9511;54.242;12.448;2023-12-20T11:38:13;99904.50;;;4.51;100.00
18765;BME280;9511;54.242;12.448;2023-12-20T11:40:41;99903.44;;;4.46;100.00
18765;BME280;9511;54.242;12.448;2023-12-20T11:43:09;99909.56;;;4.47;100.00
18765;BME280;9511;54.242;12.448;2023-12-20T11:45:49;99907.28;;;4.56;100.00
18765;BME280;9511;54.242;12.448;2023-12-20T11:48:16;99906.56;;;4.60;100.00
18765;BME280;9511;54.242;12.448;2023-12-20T11:50:44;99912.91;;;4.67;100.00
18765;BME280;9511;54.242;12.448;2023-12-20T11:53:12;99906.34;;;4.79;100.00
18765;BME280;9511;54.242;12.448;2023-12-20T11:55:39;99916.06;;;4.82;100.00
18765;BME280;9511;54.242;12.448;2023-12-20T11:58:07;99903.88;;;4.84;100.00
18765;BME280;9511;54.242;12.448;2023-12-20T12:00:35;99917.66;;;4.78;100.00
18765;BME280;9511;54.242;12.448;2023-12-20T12:03:04;99910.50;;;4.73;100.00
18765;BME280;9511;54.242;12.448;2023-12-20T12:05:31;99909.66;;;4.74;100.00
18765;BME280;9511;54.242;12.448;2023-12-20T12:07:59;99912.38;;;4.77;100.00
18765;BME280;9511;54.242;12.448;2023-12-20T12:10:26;99903.56;;;4.75;100.00
18765;BME280;9511;54.242;12.448;2023-12-20T12:12:54;99906.97;;;4.72;100.00
18765;BME280;9511;54.242;12.448;2023-12-20T12:15:21;99916.63;;;4.73;100.00
18765;BME280;9511;54.242;12.448;2023-12-20T12:17:55;99909.59;;;4.72;100.00
18765;BME280;9511;54.242;12.448;2023-12-20T12:20:24;99915.84;;;4.76;100.00
18765;BME280;9511;54.242;12.448;2023-12-20T12:22:58;99909.47;;;4.69;100.00
18765;BME280;9511;54.242;12.448;2023-12-20T12:25:26;99911.13;;;4.66;100.00
18765;BME280;9511;54.242;12.448;2023-12-20T12:27:53;99911.22;;;4.69;100.00
18765;BME280;9511;54.242;12.448;2023-12-20T12:30:20;99916.34;;;4.66;100.00
18765;BME280;9511;54.242;12.448;2023-12-20T12:32:48;99906.09;;;4.72;100.00
18765;BME280;9511;54.242;12.448;2023-12-20T12:35:15;99894.56;;;4.67;100.00
18765;BME280;9511;54.242;12.448;2023-12-20T12:37:44;99900.84;;;4.72;100.00
18765;BME280;9511;54.242;12.448;2023-12-20T12:40:12;99915.59;;;4.70;100.00
18765;BME280;9511;54.242;12.448;2023-12-20T12:42:41;99907.75;;;4.70;100.00
18765;BME280;9511;54.242;12.448;2023-12-20T12:45:09;99913.16;;;4.74;100.00
18765;BME280;9511;54.242;12.448;2023-12-20T12:47:38;99908.53;;;4.67;100.00
18765;BME280;9511;54.242;12.448;2023-12-20T12:50:06;99913.78;;;4.67;100.00
18765;BME280;9511;54.242;12.448;2023-12-20T12:52:34;99912.91;;;4.67;100.00
18765;BME280;9511;54.242;12.448;2023-12-20T12:55:04;99909.44;;;4.68;100.00
18765;BME280;9511;54.242;12.448;2023-12-20T12:57:31;99915.72;;;4.73;100.00
18765;BME280;9511;54.242;12.448;2023-12-20T12:59:59;99911.13;;;4.66;100.00
18765;BME280;9511;54.242;12.448;2023-12-20T13:02:26;99918.84;;;4.63;100.00
18765;BME280;9511;54.242;12.448;2023-12-20T13:04:54;99908.38;;;4.63;100.00
18765;BME280;9511;54.242;12.448;2023-12-20T13:07:21;99923.41;;;4.68;100.00
18765;BME280;9511;54.242;12.448;2023-12-20T13:09:48;99906.38;;;4.81;100.00
18765;BME280;9511;54.242;12.448;2023-12-20T13:12:17;99918.13;;;4.92;100.00
18765;BME280;9511;54.242;12.448;2023-12-20T13:14:44;99916.78;;;4.78;100.00
18765;BME280;9511;54.242;12.448;2023-12-20T13:17:24;99907.75;;;4.70;100.00
18765;BME280;9511;54.242;12.448;2023-12-20T13:19:51;99912.31;;;4.75;100.00
18765;BME280;9511;54.242;12.448;2023-12-20T13:22:18;99916.78;;;4.78;100.00
18765;BME280;9511;54.242;12.448;2023-12-20T13:24:46;99928.94;;;4.76;100.00
18765;BME280;9511;54.242;12.448;2023-12-20T13:27:13;99915.72;;;4.73;100.00
18765;BME280;9511;54.242;12.448;2023-12-20T13:29:42;99914.78;;;4.71;100.00
18765;BME280;9511;54.242;12.448;2023-12-20T13:32:09;99916.44;;;4.69;100.00
18765;BME280;9511;54.242;12.448;2023-12-20T13:34:36;99914.72;;;4.69;100.00
18765;BME280;9511;54.242;12.448;2023-12-20T13:37:04;99914.78;;;4.71;100.00
18765;BME280;9511;54.242;12.448;2023-12-20T13:39:31;99909.47;;;4.69;100.00
18765;BME280;9511;54.242;12.448;2023-12-20T13:41:59;99910.44;;;4.71;100.00
18765;BME280;9511;54.242;12.448;2023-12-20T13:44:26;99918.97;;;4.66;100.00
18765;BME280;9511;54.242;12.448;2023-12-20T13:46:55;99918.22;;;4.70;100.00
18765;BME280;9511;54.242;12.448;2023-12-20T13:49:22;99930.38;;;4.68;100.00
18765;BME280;9511;54.242;12.448;2023-12-20T13:51:51;99924.31;;;4.69;100.00
18765;BME280;9511;54.242;12.448;2023-12-20T13:54:20;99932.38;;;4.75;100.00
18765;BME280;9511;54.242;12.448;2023-12-20T13:56:48;99922.03;;;4.78;99.62
18765;BME280;9511;54.242;12.448;2023-12-20T13:59:15;99929.84;;;4.76;99.10
18765;BME280;9511;54.242;12.448;2023-12-20T14:01:42;99938.47;;;4.74;98.51
18765;BME280;9511;54.242;12.448;2023-12-20T14:04:11;99938.41;;;4.72;98.45
18765;BME280;9511;54.242;12.448;2023-12-20T14:06:38;99954.19;;;4.74;98.44
18765;BME280;9511;54.242;12.448;2023-12-20T14:09:06;99947.28;;;4.76;98.66
18765;BME280;9511;54.242;12.448;2023-12-20T14:11:34;99954.19;;;4.74;98.54
18765;BME280;9511;54.242;12.448;2023-12-20T14:14:07;99952.34;;;4.71;98.83
18765;BME280;9511;54.242;12.448;2023-12-20T14:16:34;99946.31;;;4.74;98.46
18765;BME280;9511;54.242;12.448;2023-12-20T14:19:01;99948.91;;;4.72;98.31
18765;BME280;9511;54.242;12.448;2023-12-20T14:21:30;99957.66;;;4.73;98.51
18765;BME280;9511;54.242;12.448;2023-12-20T14:23:58;99950.59;;;4.70;98.27
18765;BME280;9511;54.242;12.448;2023-12-20T14:26:26;99961.81;;;4.68;98.32
18765;BME280;9511;54.242;12.448;2023-12-20T14:28:53;99956.59;;;4.68;98.42
18765;BME280;9511;54.242;12.448;2023-12-20T14:31:21;99978.25;;;4.64;98.30
18765;BME280;9511;54.242;12.448;2023-12-20T14:33:50;99967.63;;;4.59;98.52
18765;BME280;9511;54.242;12.448;2023-12-20T14:36:19;99966.50;;;4.52;98.11
18765;BME280;9511;54.242;12.448;2023-12-20T14:38:48;99980.38;;;4.50;97.67
18765;BME280;9511;54.242;12.448;2023-12-20T14:41:16;99971.41;;;4.43;97.26
18765;BME280;9511;54.242;12.448;2023-12-20T14:43:45;99964.28;;;4.39;97.22
18765;BME280;9511;54.242;12.448;2023-12-20T14:46:12;99968.50;;;4.36;96.72
18765;BME280;9511;54.242;12.448;2023-12-20T14:48:40;99988.47;;;4.32;96.36
18765;BME280;9511;54.242;12.448;2023-12-20T14:51:07;99973.69;;;4.34;95.46
18765;BME280;9511;54.242;12.448;2023-12-20T14:53:35;99973.50;;;4.30;95.46
18765;BME280;9511;54.242;12.448;2023-12-20T14:56:05;99983.09;;;4.29;94.99
18765;BME280;9511;54.242;12.448;2023-12-20T14:58:33;99977.63;;;4.23;95.12
18765;BME280;9511;54.242;12.448;2023-12-20T15:01:00;99977.75;;;4.26;94.86
18765;BME280;9511;54.242;12.448;2023-12-20T15:03:28;99977.31;;;4.14;95.50
18765;BME280;9511;54.242;12.448;2023-12-20T15:05:56;99985.25;;;4.17;95.21
18765;BME280;9511;54.242;12.448;2023-12-20T15:08:25;99985.19;;;4.15;95.35
18765;BME280;9511;54.242;12.448;2023-12-20T15:10:52;99982.63;;;4.17;95.03
18765;BME280;9511;54.242;12.448;2023-12-20T15:13:21;99977.31;;;4.14;95.38
18765;BME280;9511;54.242;12.448;2023-12-20T15:15:48;100007.03;;;4.16;95.46
18765;BME280;9511;54.242;12.448;2023-12-20T15:18:15;99984.41;;;4.18;95.74
18765;BME280;9511;54.242;12.448;2023-12-20T15:20:43;99988.09;;;4.23;95.90
18765;BME280;9511;54.242;12.448;2023-12-20T15:23:11;99978.41;;;4.20;95.78
18765;BME280;9511;54.242;12.448;2023-12-20T15:25:38;99988.00;;;4.20;95.60
18765;BME280;9511;54.242;12.448;2023-12-20T15:28:05;99993.91;;;4.14;95.71
18765;BME280;9511;54.242;12.448;2023-12-20T15:30:34;99982.53;;;4.14;95.56
18765;BME280;9511;54.242;12.448;2023-12-20T15:33:02;99990.44;;;4.15;95.82
18765;BME280;9511;54.242;12.448;2023-12-20T15:35:29;99974.72;;;4.15;96.60
18765;BME280;9511;54.242;12.448;2023-12-20T15:37:57;99984.19;;;4.12;96.46
18765;BME280;9511;54.242;12.448;2023-12-20T15:40:25;99979.91;;;4.14;97.08
18765;BME280;9511;54.242;12.448;2023-12-20T15:42:52;99986.81;;;4.12;96.74
18765;BME280;9511;54.242;12.448;2023-12-20T15:45:21;99989.31;;;4.09;97.26
18765;BME280;9511;54.242;12.448;2023-12-20T15:47:50;99979.44;;;4.02;97.20
18765;BME280;9511;54.242;12.448;2023-12-20T15:50:17;99991.56;;;3.99;97.34
18765;BME280;9511;54.242;12.448;2023-12-20T15:52:45;99990.81;;;4.02;97.67
18765;BME280;9511;54.242;12.448;2023-12-20T15:55:12;99995.38;;;4.08;97.94
18765;BME280;9511;54.242;12.448;2023-12-20T15:57:39;99995.44;;;4.09;97.68
18765;BME280;9511;54.242;12.448;2023-12-20T16:00:08;99997.41;;;4.15;97.80
18765;BME280;9511;54.242;12.448;2023-12-20T16:02:36;99995.63;;;4.14;97.31
18765;BME280;9511;54.242;12.448;2023-12-20T16:05:05;99992.94;;;4.12;97.77
18765;BME280;9511;54.242;12.448;2023-12-20T16:07:33;99987.63;;;4.11;97.89
18765;BME280;9511;54.242;12.448;2023-12-20T16:10:00;99991.75;;;4.04;97.81
18765;BME280;9511;54.242;12.448;2023-12-20T16:12:28;99995.38;;;4.08;97.88
18765;BME280;9511;54.242;12.448;2023-12-20T16:14:56;99991.81;;;4.06;98.11
18765;BME280;9511;54.242;12.448;2023-12-20T16:17:23;99999.75;;;4.07;98.22
18765;BME280;9511;54.242;12.448;2023-12-20T16:19:51;99988.44;;;4.08;98.40
18765;BME280;9511;54.242;12.448;2023-12-20T16:22:19;99979.84;;;4.12;98.56
18765;BME280;9511;54.242;12.448;2023-12-20T16:24:46;99994.66;;;4.12;98.15
18765;BME280;9511;54.242;12.448;2023-12-20T16:27:14;99996.44;;;4.13;97.89
18765;BME280;9511;54.242;12.448;2023-12-20T16:29:41;100000.13;;;4.18;97.66
18765;BME280;9511;54.242;12.448;2023-12-20T16:32:10;100000.13;;;4.18;97.77
18765;BME280;9511;54.242;12.448;2023-12-20T16:34:37;99999.41;;;4.22;97.58
18765;BME280;9511;54.242;12.448;2023-12-20T16:37:04;100000.47;;;4.27;97.57
18765;BME280;9511;54.242;12.448;2023-12-20T16:39:33;99999.59;;;4.26;96.90
18765;BME280;9511;54.242;12.448;2023-12-20T16:42:00;99995.25;;;4.27;96.58
18765;BME280;9511;54.242;12.448;2023-12-20T16:44:28;100005.59;;;4.24;96.27
18765;BME280;9511;54.242;12.448;2023-12-20T16:46:55;100010.94;;;4.27;95.90
18765;BME280;9511;54.242;12.448;2023-12-20T16:49:22;100014.59;;;4.31;95.11
18765;BME280;9511;54.242;12.448;2023-12-20T16:51:50;100004.78;;;4.25;94.68
18765;BME280;9511;54.242;12.448;2023-12-20T16:54:17;100020.47;;;4.25;94.56
18765;BME280;9511;54.242;12.448;2023-12-20T16:56:46;100031.75;;;4.24;94.58
18765;BME280;9511;54.242;12.448;2023-12-20T16:59:13;100019.50;;;4.23;94.78
18765;BME280;9511;54.242;12.448;2023-12-20T17:01:41;100027.97;;;4.16;94.83
18765;BME280;9511;54.242;12.448;2023-12-20T17:04:11;100021.94;;;4.18;94.81
18765;BME280;9511;54.242;12.448;2023-12-20T17:06:38;100015.78;;;4.16;94.86